createdAt,value
2023-04-05T00:01:12.591Z,4.68
2023-04-05T00:03:43.446Z,10.13
2023-04-05T00:06:13.440Z,5.40
2023-04-05T00:08:44.057Z,5.88
2023-04-05T00:11:12.000Z,4.57
2023-04-05T00:13:39.983Z,4.53
2023-04-05T00:16:08.075Z,4.57
2023-04-05T00:18:38.820Z,7.57
2023-04-05T00:21:06.932Z,7.25
2023-04-05T00:23:38.767Z,5.25
2023-04-05T00:26:07.595Z,8.10
2023-04-05T00:28:36.263Z,6.40
2023-04-05T00:31:05.824Z,5.50
2023-04-05T00:33:33.876Z,5.13
2023-04-05T00:36:11.870Z,7.43
2023-04-05T00:38:41.014Z,6.10
2023-04-05T00:41:09.887Z,5.97
2023-04-05T00:43:38.112Z,6.22
2023-04-05T00:46:07.324Z,4.00
2023-04-05T00:48:36.187Z,5.75
2023-04-05T00:51:04.606Z,5.80
2023-04-05T00:53:32.738Z,5.53
2023-04-05T00:56:01.617Z,6.65
2023-04-05T00:58:29.979Z,5.43
2023-04-05T01:01:09.761Z,7.68
2023-04-05T01:03:39.003Z,5.43
2023-04-05T01:06:12.977Z,5.20
2023-04-05T01:08:52.580Z,9.73
2023-04-05T01:11:22.316Z,5.15
2023-04-05T01:13:50.330Z,5.07
2023-04-05T01:16:18.497Z,5.95
2023-04-05T01:18:47.469Z,4.88
2023-04-05T01:21:29.783Z,5.15
2023-04-05T01:24:15.051Z,4.72
2023-04-05T01:27:05.863Z,4.57
2023-04-05T01:30:11.076Z,9.10
2023-04-05T01:32:51.553Z,4.72
2023-04-05T01:35:30.356Z,4.32
2023-04-05T01:38:02.741Z,4.90
2023-04-05T01:40:32.603Z,3.80
2023-04-05T01:43:03.797Z,4.97
2023-04-05T01:45:32.170Z,5.05
2023-04-05T01:48:01.338Z,6.15
2023-04-05T01:50:29.372Z,3.95
2023-04-05T01:52:57.560Z,4.63
2023-04-05T01:55:25.570Z,3.13
2023-04-05T01:57:56.110Z,5.20
2023-04-05T02:00:24.724Z,14.77
2023-04-05T02:02:53.231Z,3.90
2023-04-05T02:05:21.279Z,3.83
2023-04-05T02:07:49.211Z,4.63
2023-04-05T02:10:18.820Z,3.88
2023-04-05T02:12:46.794Z,5.35
2023-04-05T02:15:14.743Z,3.50
2023-04-05T02:17:46.390Z,4.55
2023-04-05T02:20:14.997Z,3.53
2023-04-05T02:22:45.579Z,3.17
2023-04-05T02:25:13.904Z,3.83
2023-04-05T02:27:42.114Z,2.60
2023-04-05T02:30:10.791Z,3.03
2023-04-05T02:32:38.748Z,3.10
2023-04-05T02:35:07.242Z,3.63
2023-04-05T02:37:35.842Z,2.85
2023-04-05T02:40:09.017Z,3.50
2023-04-05T02:42:40.187Z,3.25
2023-04-05T02:45:08.690Z,4.82
2023-04-05T02:47:36.994Z,3.63
2023-04-05T02:50:05.578Z,3.85
2023-04-05T02:56:16.481Z,3.20
2023-04-05T02:58:49.624Z,6.30
2023-04-05T03:01:24.139Z,18.40
2023-04-05T03:03:52.525Z,21.52
2023-04-05T03:06:22.737Z,25.25
2023-04-05T03:08:52.613Z,20.40
2023-04-05T03:11:24.736Z,14.65
2023-04-05T03:13:57.819Z,12.68
2023-04-05T03:16:40.149Z,13.85
2023-04-05T03:19:32.510Z,11.73
2023-04-05T03:22:10.888Z,11.13
2023-04-05T03:24:42.835Z,8.15
2023-04-05T03:27:15.395Z,8.75
2023-04-05T03:29:58.230Z,7.97
2023-04-05T03:32:26.834Z,7.65
2023-04-05T03:35:13.405Z,7.43
2023-04-05T03:37:46.215Z,12.15
2023-04-05T03:40:14.820Z,11.27
2023-04-05T03:42:53.275Z,15.55
2023-04-05T03:45:24.360Z,12.85
2023-04-05T03:47:55.431Z,28.77
2023-04-05T03:50:24.060Z,14.57
2023-04-05T03:55:22.160Z,14.88
2023-04-05T03:57:53.014Z,23.10
2023-04-05T04:00:29.979Z,19.10
2023-04-05T04:03:21.193Z,16.80
2023-04-05T04:05:52.665Z,11.27
2023-04-05T04:08:21.593Z,12.45
2023-04-05T04:10:51.202Z,7.40
2023-04-05T04:13:28.390Z,8.93
2023-04-05T04:16:13.393Z,7.85
2023-04-05T04:18:57.269Z,8.13
2023-04-05T04:21:32.842Z,7.95
2023-04-05T04:24:36.123Z,7.88
2023-04-05T04:27:14.216Z,7.82
2023-04-05T04:30:13.081Z,7.15
2023-04-05T04:33:00.202Z,6.30
2023-04-05T04:35:40.878Z,8.95
2023-04-05T04:38:21.983Z,2.72
2023-04-05T04:41:10.224Z,6.93
2023-04-05T04:43:48.206Z,5.88
2023-04-05T04:46:30.885Z,6.20
2023-04-05T04:49:21.882Z,6.10
2023-04-05T04:51:49.942Z,5.97
2023-04-05T04:54:21.195Z,9.15
2023-04-05T04:56:49.241Z,7.15
2023-04-05T04:59:17.367Z,7.90
2023-04-05T05:01:46.177Z,6.55
2023-04-05T05:04:14.227Z,7.28
2023-04-05T05:06:43.340Z,4.82
2023-04-05T05:09:11.387Z,6.25
2023-04-05T05:11:48.833Z,13.05
2023-04-05T05:14:16.861Z,4.25
2023-04-05T05:16:44.913Z,7.50
2023-04-05T05:19:12.950Z,7.97
2023-04-05T05:21:47.347Z,6.88
2023-04-05T05:26:44.411Z,6.38
2023-04-05T05:29:12.405Z,6.65
2023-04-05T05:31:44.403Z,3.45
2023-04-05T05:34:13.539Z,5.35
2023-04-05T05:36:48.236Z,4.40
2023-04-05T05:39:16.194Z,5.60
2023-04-05T05:41:45.146Z,3.35
2023-04-05T05:44:14.171Z,5.43
2023-04-05T05:46:42.104Z,5.25
2023-04-05T05:49:10.174Z,5.95
2023-04-05T05:51:39.744Z,5.32
2023-04-05T05:54:11.812Z,5.70
2023-04-05T05:56:40.239Z,6.68
2023-04-05T05:59:08.162Z,4.97
2023-04-05T06:01:42.927Z,5.47
2023-04-05T06:04:11.100Z,6.70
2023-04-05T06:06:39.380Z,4.03
2023-04-05T06:09:07.439Z,4.55
2023-04-05T06:11:37.132Z,5.88
2023-04-05T06:14:09.052Z,4.47
2023-04-05T06:16:37.480Z,5.00
2023-04-05T06:19:05.522Z,5.32
2023-04-05T06:21:33.626Z,3.53
2023-04-05T06:24:01.831Z,4.60
2023-04-05T06:26:31.852Z,5.20
2023-04-05T06:28:59.813Z,5.03
2023-04-05T06:31:32.241Z,5.72
2023-04-05T06:34:01.352Z,4.60
2023-04-05T06:36:34.371Z,5.57
2023-04-05T06:39:02.742Z,5.00
2023-04-05T06:41:31.049Z,1.33
2023-04-05T06:43:59.395Z,8.43
2023-04-05T06:46:29.396Z,5.38
2023-04-05T06:48:59.584Z,3.60
2023-04-05T06:51:29.874Z,4.00
2023-04-05T06:53:58.463Z,4.32
2023-04-05T06:56:27.260Z,5.53
2023-04-05T06:58:56.011Z,4.75
2023-04-05T07:01:25.270Z,4.45
2023-04-05T07:03:53.977Z,2.08
2023-04-05T07:06:24.248Z,6.03
2023-04-05T07:08:52.879Z,4.55
2023-04-05T07:11:23.549Z,2.83
2023-04-05T07:13:51.469Z,4.88
2023-04-05T07:16:25.706Z,8.52
2023-04-05T07:18:56.011Z,6.25
2023-04-05T07:21:24.424Z,3.53
2023-04-05T07:23:53.953Z,3.15
2023-04-05T07:26:22.826Z,8.18
2023-04-05T07:28:50.850Z,7.55
2023-04-05T07:31:18.783Z,5.85
2023-04-05T07:33:49.927Z,1.25
2023-04-05T07:36:18.360Z,5.30
2023-04-05T07:38:47.490Z,2.53
2023-04-05T07:41:18.799Z,4.95
2023-04-05T07:43:50.277Z,5.47
2023-04-05T07:46:19.899Z,3.40
2023-04-05T07:48:48.926Z,7.38
2023-04-05T07:51:17.190Z,12.65
2023-04-05T07:53:45.267Z,12.73
2023-04-05T07:56:16.599Z,22.75
2023-04-05T07:58:45.215Z,8.10
2023-04-05T08:01:13.517Z,8.02
2023-04-05T08:03:41.616Z,8.05
2023-04-05T08:06:11.750Z,6.40
2023-04-05T08:08:41.958Z,5.55
2023-04-05T08:11:10.208Z,6.53
2023-04-05T08:13:41.901Z,7.85
2023-04-05T08:16:11.605Z,5.75
2023-04-05T08:18:39.601Z,7.10
2023-04-05T08:21:07.541Z,7.70
2023-04-05T08:23:35.855Z,5.70
2023-04-05T08:26:04.404Z,5.90
2023-04-05T08:28:32.785Z,5.25
2023-04-05T08:31:02.080Z,6.72
2023-04-05T08:33:31.372Z,5.38
2023-04-05T08:36:07.983Z,4.53
2023-04-05T08:38:36.199Z,6.40
2023-04-05T08:41:21.988Z,9.15
2023-04-05T08:44:03.834Z,8.98
2023-04-05T08:46:36.278Z,8.60
2023-04-05T08:49:09.041Z,4.45
2023-04-05T08:51:39.574Z,6.97
2023-04-05T08:54:08.086Z,9.38
2023-04-05T08:56:37.341Z,6.03
2023-04-05T08:59:11.466Z,8.52
2023-04-05T09:01:44.391Z,8.00
2023-04-05T09:04:22.366Z,9.77
2023-04-05T09:06:52.588Z,8.02
2023-04-05T09:09:21.891Z,5.40
2023-04-05T09:11:53.448Z,6.53
2023-04-05T09:14:22.182Z,6.63
2023-04-05T09:16:50.364Z,9.88
2023-04-05T09:19:18.651Z,6.88
2023-04-05T09:22:03.222Z,6.45
2023-04-05T09:24:42.359Z,4.20
2023-04-05T09:27:12.403Z,8.43
2023-04-05T09:29:42.912Z,6.43
2023-04-05T09:32:12.426Z,16.75
2023-04-05T09:34:42.072Z,7.43
2023-04-05T09:37:22.239Z,6.90
2023-04-05T09:40:02.033Z,5.93
2023-04-05T09:42:44.049Z,5.93
2023-04-05T09:45:12.682Z,6.05
2023-04-05T09:47:58.135Z,4.15
2023-04-05T09:50:26.606Z,4.65
2023-04-05T09:53:16.736Z,7.90
2023-04-05T09:55:47.414Z,7.15
2023-04-05T09:58:22.483Z,9.98
2023-04-05T10:01:03.342Z,5.38
2023-04-05T10:03:48.565Z,10.30
2023-04-05T10:06:17.400Z,6.53
2023-04-05T10:08:47.816Z,13.13
2023-04-05T10:11:19.676Z,8.27
2023-04-05T10:13:50.710Z,6.10
2023-04-05T10:16:22.675Z,7.40
2023-04-05T10:18:53.109Z,5.00
2023-04-05T10:21:30.000Z,6.72
2023-04-05T10:24:16.790Z,8.50
2023-04-05T10:27:18.099Z,13.73
2023-04-05T10:30:09.321Z,9.32
2023-04-05T10:32:58.657Z,7.40
2023-04-05T10:35:34.631Z,8.55
2023-04-05T10:38:02.753Z,10.55
2023-04-05T10:40:33.410Z,8.38
2023-04-05T10:43:04.524Z,11.38
2023-04-05T10:45:35.782Z,17.33
2023-04-05T10:48:19.310Z,9.40
2023-04-05T10:50:48.866Z,12.70
2023-04-05T10:53:19.589Z,9.55
2023-04-05T10:55:50.031Z,11.40
2023-04-05T10:58:19.531Z,15.68
2023-04-05T11:00:49.643Z,7.78
2023-04-05T11:03:43.054Z,3.88
2023-04-05T11:06:26.286Z,6.57
2023-04-05T11:08:59.360Z,10.00
2023-04-05T11:11:27.932Z,7.18
2023-04-05T11:13:57.305Z,6.53
2023-04-05T11:16:40.282Z,7.88
2023-04-05T11:19:08.405Z,6.72
2023-04-05T11:21:36.901Z,8.30
2023-04-05T11:24:08.350Z,7.28
2023-04-05T11:26:48.280Z,5.78
2023-04-05T11:29:16.510Z,13.98
2023-04-05T11:32:06.553Z,8.60
2023-04-05T11:34:37.988Z,7.80
2023-04-05T11:37:06.102Z,9.18
2023-04-05T11:39:34.065Z,9.20
2023-04-05T11:42:16.317Z,3.45
2023-04-05T11:44:49.893Z,7.22
2023-04-05T11:47:18.741Z,4.60
2023-04-05T11:49:50.636Z,7.05
2023-04-05T11:52:20.844Z,8.10
2023-04-05T11:54:49.489Z,15.88
2023-04-05T11:57:24.709Z,7.47
2023-04-05T11:59:53.796Z,8.38
2023-04-05T12:02:22.692Z,6.45
2023-04-05T12:04:58.232Z,7.90
2023-04-05T12:07:29.706Z,6.85
2023-04-05T12:10:10.164Z,8.23
2023-04-05T12:12:40.784Z,8.05
2023-04-05T12:15:12.203Z,8.50
2023-04-05T12:17:51.267Z,7.07
2023-04-05T12:20:27.069Z,7.22
2023-04-05T12:22:56.785Z,9.07
2023-04-05T12:25:26.457Z,7.82
2023-04-05T12:27:54.686Z,11.32
2023-04-05T12:30:24.377Z,8.50
2023-04-05T12:32:55.056Z,9.65
2023-04-05T12:35:25.290Z,7.72
2023-04-05T12:37:53.305Z,11.93
2023-04-05T12:40:23.523Z,11.13
2023-04-05T12:42:52.755Z,6.45
2023-04-05T12:45:24.186Z,7.78
2023-04-05T12:48:01.303Z,9.10
2023-04-05T12:50:31.214Z,15.57
2023-04-05T12:53:08.848Z,16.50
2023-04-05T12:55:46.086Z,8.88
2023-04-05T12:58:14.929Z,12.93
2023-04-05T13:00:42.963Z,10.52
2023-04-05T13:03:20.888Z,7.97
2023-04-05T13:05:49.591Z,8.77
2023-04-05T13:08:21.232Z,7.63
2023-04-05T13:10:50.448Z,8.18
2023-04-05T13:13:21.325Z,7.22
2023-04-05T13:15:51.976Z,8.88
2023-04-05T13:18:20.818Z,10.27
2023-04-05T13:20:48.819Z,9.50
2023-04-05T13:23:16.857Z,10.20
2023-04-05T13:25:47.706Z,16.65
2023-04-05T13:28:16.266Z,18.17
2023-04-05T13:30:44.365Z,36.85
2023-04-05T13:33:12.908Z,68.50
2023-04-05T13:35:41.659Z,68.45
2023-04-05T13:38:09.891Z,26.25
2023-04-05T13:40:37.858Z,17.30
2023-04-05T13:43:06.225Z,12.55
2023-04-05T13:45:34.831Z,6.70
2023-04-05T13:48:03.617Z,13.52
2023-04-05T13:50:31.622Z,12.77
2023-04-05T13:52:59.662Z,12.77
2023-04-05T13:55:27.589Z,5.30
2023-04-05T13:57:55.579Z,7.32
2023-04-05T14:00:24.272Z,12.07
2023-04-05T14:02:55.555Z,14.95
2023-04-05T14:05:24.126Z,10.15
2023-04-05T14:07:52.109Z,14.05
2023-04-05T14:10:21.868Z,10.55
2023-04-05T14:12:50.217Z,9.45
2023-04-05T14:15:18.386Z,9.35
2023-04-05T14:17:46.398Z,14.77
2023-04-05T14:20:14.540Z,14.40
2023-04-05T14:22:42.670Z,10.98
2023-04-05T14:25:11.299Z,12.60
2023-04-05T14:27:42.733Z,12.57
2023-04-05T14:30:12.760Z,15.77
2023-04-05T14:32:42.076Z,9.70
2023-04-05T14:35:10.481Z,6.97
2023-04-05T14:37:38.508Z,9.90
2023-04-05T14:40:07.489Z,10.93
2023-04-05T14:42:47.633Z,13.07
2023-04-05T14:45:19.062Z,10.85
2023-04-05T14:47:47.601Z,8.57
2023-04-05T14:50:16.174Z,6.28
2023-04-05T14:52:46.041Z,16.27
2023-04-05T14:55:14.973Z,9.27
2023-04-05T14:57:43.854Z,14.32
2023-04-05T15:00:13.948Z,11.10
2023-04-05T15:02:42.584Z,10.00
2023-04-05T15:05:11.729Z,9.70
2023-04-05T15:07:40.113Z,8.88
2023-04-05T15:10:09.103Z,12.65
2023-04-05T15:12:37.711Z,12.00
2023-04-05T15:15:07.087Z,18.55
2023-04-05T15:17:35.972Z,15.98
2023-04-05T15:20:05.092Z,11.63
2023-04-05T15:22:34.320Z,14.63
2023-04-05T15:25:02.919Z,10.43
2023-04-05T15:27:31.579Z,12.43
2023-04-05T15:30:00.800Z,13.60
2023-04-05T15:32:29.153Z,11.63
2023-04-05T15:34:58.314Z,11.02
2023-04-05T15:39:54.839Z,7.82
2023-04-05T15:42:23.527Z,13.25
2023-04-05T15:44:52.237Z,17.55
2023-04-05T15:47:20.800Z,11.02
2023-04-05T15:49:49.488Z,13.07
2023-04-05T15:52:18.421Z,11.80
2023-04-05T15:54:48.121Z,13.73
2023-04-05T15:57:16.686Z,13.20
2023-04-05T15:59:45.378Z,11.63
2023-04-05T16:02:14.121Z,11.82
2023-04-05T16:04:42.911Z,13.77
2023-04-05T16:07:11.546Z,12.77
2023-04-05T16:09:40.188Z,13.45
2023-04-05T16:12:08.699Z,14.13
2023-04-05T16:14:37.529Z,16.45
2023-04-05T16:17:06.358Z,12.63
2023-04-05T16:19:37.420Z,17.45
2023-04-05T16:22:06.677Z,16.63
2023-04-05T16:24:37.343Z,19.20
2023-04-05T16:27:06.704Z,26.23
2023-04-05T16:32:04.004Z,9.48
2023-04-05T16:34:32.646Z,17.35
2023-04-05T16:37:01.388Z,16.10
2023-04-05T16:39:30.211Z,16.10
2023-04-05T16:41:58.800Z,11.73
2023-04-05T16:44:27.307Z,10.80
2023-04-05T16:46:56.954Z,15.07
2023-04-05T16:49:25.557Z,10.63
2023-04-05T16:51:54.306Z,5.82
2023-04-05T16:54:23.056Z,11.13
2023-04-05T16:56:51.744Z,15.48
2023-04-05T16:59:20.323Z,13.20
2023-04-05T17:01:49.047Z,19.02
2023-04-05T17:04:18.027Z,19.77
2023-04-05T17:06:46.655Z,11.63
2023-04-05T17:09:15.603Z,10.23
2023-04-05T17:11:43.951Z,7.53
2023-04-05T17:14:12.722Z,10.95
2023-04-05T17:16:41.330Z,11.00
2023-04-05T17:19:10.072Z,10.50
2023-04-05T17:21:38.678Z,8.48
2023-04-05T17:24:07.827Z,6.20
2023-04-05T17:26:36.356Z,10.65
2023-04-05T17:29:05.064Z,10.15
2023-04-05T17:31:34.140Z,12.15
2023-04-05T17:34:03.051Z,10.18
2023-04-05T17:36:32.014Z,9.93
2023-04-05T17:39:00.732Z,15.82
2023-04-05T17:41:29.141Z,10.10
2023-04-05T17:43:57.760Z,13.38
2023-04-05T17:46:40.111Z,17.75
2023-04-05T17:49:09.876Z,14.23
2023-04-05T17:51:38.211Z,11.77
2023-04-05T17:54:07.185Z,16.92
2023-04-05T17:56:35.710Z,41.25
2023-04-05T17:59:04.840Z,30.98
2023-04-05T18:01:33.560Z,32.78
2023-04-05T18:04:02.486Z,39.83
2023-04-05T18:06:31.543Z,19.50
2023-04-05T18:09:00.509Z,20.15
2023-04-05T18:11:29.022Z,39.03
2023-04-05T18:13:58.419Z,20.02
2023-04-05T18:16:31.756Z,19.33
2023-04-05T18:19:01.535Z,16.27
2023-04-05T18:21:30.378Z,18.15
2023-04-05T18:23:59.249Z,17.00
2023-04-05T18:26:28.783Z,17.40
2023-04-05T18:29:00.536Z,18.85
2023-04-05T18:31:29.833Z,18.80
2023-04-05T18:34:01.113Z,13.48
2023-04-05T18:36:29.795Z,22.02
2023-04-05T18:39:00.950Z,25.75
2023-04-05T18:41:30.475Z,21.05
2023-04-05T18:43:59.554Z,15.60
2023-04-05T18:46:28.506Z,13.20
2023-04-05T18:48:58.370Z,11.70
2023-04-05T18:51:27.486Z,14.38
2023-04-05T18:53:55.906Z,14.88
2023-04-05T18:56:24.664Z,23.10
2023-04-05T18:58:53.129Z,22.17
2023-04-05T19:01:22.620Z,19.17
2023-04-05T19:03:51.397Z,17.58
2023-04-05T19:06:20.079Z,18.92
2023-04-05T19:08:48.988Z,15.45
2023-04-05T19:11:18.890Z,20.88
2023-04-05T19:13:48.026Z,22.38
2023-04-05T19:16:17.871Z,15.38
2023-04-05T19:18:46.800Z,15.57
2023-04-05T19:21:15.417Z,17.30
2023-04-05T19:23:44.085Z,15.02
2023-04-05T19:26:12.656Z,12.77
2023-04-05T19:28:41.534Z,11.93
2023-04-05T19:31:11.221Z,18.65
2023-04-05T19:36:07.723Z,11.18
2023-04-05T19:38:36.591Z,15.07
2023-04-05T19:41:05.132Z,10.75
2023-04-05T19:43:37.130Z,15.77
2023-04-05T19:46:09.200Z,23.98
2023-04-05T19:48:37.964Z,14.30
2023-04-05T19:51:11.146Z,15.93
2023-04-05T19:53:42.223Z,16.98
2023-04-05T19:56:14.771Z,16.02
2023-04-05T19:58:44.021Z,15.93
2023-04-05T20:01:22.934Z,10.65
2023-04-05T20:03:52.004Z,14.60
2023-04-05T20:06:23.451Z,8.52
2023-04-05T20:08:52.224Z,10.80
2023-04-05T20:11:22.441Z,13.00
2023-04-05T20:13:52.149Z,15.18
2023-04-05T20:16:29.618Z,14.80
2023-04-05T20:19:01.800Z,14.15
2023-04-05T20:21:30.281Z,12.65
2023-04-05T20:23:59.736Z,7.95
2023-04-05T20:26:32.128Z,9.82
2023-04-05T20:29:02.704Z,15.90
2023-04-05T20:34:14.263Z,10.23
2023-04-05T20:37:00.378Z,6.78
2023-04-05T20:39:30.034Z,11.55
2023-04-05T20:41:59.811Z,14.93
2023-04-05T20:44:28.264Z,11.55
2023-04-05T20:46:58.307Z,11.75
2023-04-05T20:49:30.040Z,16.45
2023-04-05T20:51:58.264Z,12.05
2023-04-05T20:54:26.383Z,9.40
2023-04-05T20:56:54.664Z,12.85
2023-04-05T20:59:22.870Z,14.25
2023-04-05T21:01:50.948Z,12.52
2023-04-05T21:04:19.079Z,11.40
2023-04-05T21:06:47.546Z,10.82
2023-04-05T21:09:15.850Z,15.20
2023-04-05T21:11:43.743Z,12.10
2023-04-05T21:14:11.806Z,13.00
2023-04-05T21:16:39.877Z,14.57
2023-04-05T21:19:08.118Z,11.65
2023-04-05T21:21:36.433Z,7.68
2023-04-05T21:24:04.753Z,14.40
2023-04-05T21:26:32.912Z,13.95
2023-04-05T21:29:01.022Z,12.60
2023-04-05T21:31:29.063Z,12.90
2023-04-05T21:33:57.097Z,9.65
2023-04-05T21:36:25.108Z,8.95
2023-04-05T21:38:53.071Z,12.45
2023-04-05T21:41:21.438Z,11.27
2023-04-05T21:43:49.305Z,11.10
2023-04-05T21:46:19.410Z,10.55
2023-04-05T21:48:48.865Z,10.63
2023-04-05T21:51:16.875Z,10.13
2023-04-05T21:53:45.102Z,13.10
2023-04-05T21:56:13.089Z,14.93
2023-04-05T21:58:42.437Z,11.23
2023-04-05T22:01:10.422Z,11.75
2023-04-05T22:03:38.789Z,16.40
2023-04-05T22:06:07.018Z,11.63
2023-04-05T22:08:35.352Z,10.82
2023-04-05T22:11:03.509Z,13.25
2023-04-05T22:13:31.788Z,10.18
2023-04-05T22:15:59.929Z,10.68
2023-04-05T22:18:29.147Z,11.07
2023-04-05T22:20:57.113Z,12.23
2023-04-05T22:23:25.378Z,10.32
2023-04-05T22:25:53.583Z,10.98
2023-04-05T22:28:22.492Z,7.35
2023-04-05T22:30:50.996Z,10.07
2023-04-05T22:33:19.135Z,9.27
2023-04-05T22:35:47.292Z,8.52
2023-04-05T22:38:15.766Z,12.18
2023-04-05T22:40:45.558Z,8.43
2023-04-05T22:43:13.828Z,7.90
2023-04-05T22:45:41.772Z,6.63
2023-04-05T22:48:10.024Z,16.05
2023-04-05T22:50:38.053Z,9.13
2023-04-05T22:53:06.464Z,9.13
2023-04-05T22:55:34.550Z,9.52
2023-04-05T22:58:02.675Z,25.92
2023-04-05T23:00:30.841Z,10.90
2023-04-05T23:02:59.332Z,9.07
2023-04-05T23:05:27.538Z,8.57
2023-04-05T23:19:20.849Z,5.65
2023-04-05T23:21:49.373Z,5.82
2023-04-05T23:24:17.450Z,10.75
2023-04-05T23:26:45.374Z,7.32
2023-04-05T23:29:13.386Z,6.82
2023-04-05T23:31:41.566Z,7.70
2023-04-05T23:34:09.499Z,6.72
2023-04-05T23:36:38.186Z,7.18
2023-04-05T23:39:07.017Z,7.28
2023-04-05T23:41:35.091Z,7.47
2023-04-05T23:44:03.026Z,6.05
2023-04-05T23:46:31.200Z,6.85
2023-04-05T23:48:59.323Z,7.70
2023-04-05T23:51:27.401Z,7.47
2023-04-05T23:53:55.510Z,12.60
2023-04-05T23:56:23.378Z,9.98
2023-04-05T23:58:51.625Z,9.32
